Time;durP1;ratioP1;P1;durP2;ratioP2;P2;SDS_P1;SDS_P2;PMS_P1;PMS_P2;Temp;Humidity;BMP_temperature;BMP_pressure;BME280_temperature;BME280_humidity;BME280_pressure;Samples;Min_cycle;Max_cycle;Signal;HPM_P1;HPM_P2
2022/09/23 00:00:49;;;;;;;4.83;4.43;;;;;;;4.81;100.00;96653.84;5029836;28;101902;-61
2022/09/23 00:03:16;;;;;;;4.63;4.23;;;;;;;4.89;100.00;96642.28;5029847;28;105039;-61
2022/09/23 00:05:44;;;;;;;4.43;4.03;;;;;;;4.93;100.00;96648.75;5029308;28;105208;-61
2022/09/23 00:08:12;;;;;;;4.47;4.07;;;;;;;5.00;100.00;96644.25;5029933;28;101860;-61
2022/09/23 00:10:41;;;;;;;4.83;4.43;;;;;;;4.99;100.00;96643.47;5029740;28;105382;-61
2022/09/23 00:13:09;;;;;;;4.70;4.30;;;;;;;5.06;100.00;96648.69;5030547;28;103126;-61
2022/09/23 00:15:39;;;;;;;4.40;4.00;;;;;;;5.08;100.00;96644.81;5029814;28;101904;-61
2022/09/23 00:18:07;;;;;;;4.53;4.00;;;;;;;5.04;100.00;96648.09;5032666;28;104021;-61
2022/09/23 00:20:35;;;;;;;4.70;4.30;;;;;;;5.05;100.00;96642.63;5029648;28;101949;-61
2022/09/23 00:23:03;;;;;;;4.40;3.97;;;;;;;4.87;100.00;96645.16;5029739;28;103929;-61
2022/09/23 00:25:30;;;;;;;4.97;4.47;;;;;;;4.70;100.00;96649.22;5030274;28;102662;-61
2022/09/23 00:27:59;;;;;;;4.40;4.00;;;;;;;4.84;100.00;96648.19;5029690;28;101875;-61
2022/09/23 00:30:26;;;;;;;4.83;4.40;;;;;;;4.72;100.00;96641.13;5030702;28;101699;-61
2022/09/23 00:32:53;;;;;;;5.10;4.60;;;;;;;4.55;100.00;96642.59;5029958;27;104551;-61
2022/09/23 00:35:20;;;;;;;4.57;4.17;;;;;;;4.52;100.00;96640.34;5030921;28;101773;-61
2022/09/23 00:37:48;;;;;;;4.40;3.83;;;;;;;4.42;100.00;96637.38;5029339;28;103720;-61
2022/09/23 00:40:15;;;;;;;4.20;3.80;;;;;;;4.28;100.00;96635.75;5033839;28;103197;-61
2022/09/23 00:42:47;;;;;;;3.97;3.67;;;;;;;4.12;100.00;96633.56;5029498;28;104755;-61
2022/09/23 00:45:17;;;;;;;3.90;3.60;;;;;;;4.08;100.00;96634.97;5030365;28;102898;-61
2022/09/23 00:47:48;;;;;;;5.17;4.07;;;;;;;4.16;100.00;96635.56;5030611;28;101746;-61
2022/09/23 00:50:22;;;;;;;4.53;4.13;;;;;;;4.23;100.00;96631.13;5030733;27;102348;-61
2022/09/23 00:52:52;;;;;;;4.37;3.97;;;;;;;4.14;100.00;96631.56;5029748;28;102916;-61
2022/09/23 00:55:24;;;;;;;4.03;3.73;;;;;;;4.17;100.00;96620.59;5030584;27;101689;-61
2022/09/23 00:57:53;;;;;;;4.27;3.97;;;;;;;4.31;100.00;96616.94;5030421;27;102295;-61
2022/09/23 01:00:22;;;;;;;4.00;3.70;;;;;;;4.27;100.00;96607.84;5029840;27;101807;-61
2022/09/23 01:02:50;;;;;;;4.40;3.90;;;;;;;4.20;100.00;96609.69;5032517;28;101953;-61
2022/09/23 01:05:18;;;;;;;5.27;4.07;;;;;;;4.22;100.00;96610.25;5028730;28;102684;-61
2022/09/23 01:07:45;;;;;;;4.27;3.97;;;;;;;4.24;100.00;96601.16;5012633;28;101985;-61
2022/09/23 01:10:14;;;;;;;4.00;3.60;;;;;;;4.23;100.00;96599.53;5029051;28;105119;-61
2022/09/23 01:13:06;;;;;;;4.87;4.47;;;;;;;4.27;100.00;96606.00;5028092;28;105686;-61
2022/09/23 01:15:44;;;;;;;4.07;3.67;;;;;;;4.28;100.00;96609.44;5029008;28;101890;-61
2022/09/23 01:18:23;;;;;;;4.03;3.73;;;;;;;4.25;100.00;96601.97;5028897;28;103650;-61
2022/09/23 01:20:58;;;;;;;3.80;3.50;;;;;;;4.28;100.00;96605.00;5028079;28;105513;-61
2022/09/23 01:24:09;;;;;;;4.10;3.80;;;;;;;4.08;100.00;96606.03;5032491;28;102209;-61
2022/09/23 01:27:01;;;;;;;4.40;3.90;;;;;;;4.03;100.00;96595.31;4972157;28;105438;-61
2022/09/23 01:30:00;;;;;;;3.77;3.33;;;;;;;3.97;100.00;96591.69;5022579;28;101990;-61
2022/09/23 01:32:39;;;;;;;4.00;3.70;;;;;;;3.93;100.00;96594.94;5028930;28;103772;-61
2022/09/23 01:35:13;;;;;;;6.80;4.30;;;;;;;3.99;100.00;96594.13;5027940;28;103753;-61
2022/09/23 01:37:48;;;;;;;4.80;3.87;;;;;;;3.99;100.00;96596.75;5030222;28;101673;-61
2022/09/23 01:40:22;;;;;;;4.07;3.77;;;;;;;3.98;100.00;96595.13;5028741;28;104744;-61
2022/09/23 01:42:55;;;;;;;4.33;3.93;;;;;;;3.91;100.00;96583.78;5028255;28;105140;-61
2022/09/23 01:45:27;;;;;;;4.37;3.97;;;;;;;3.84;100.00;96585.63;5029930;28;102043;-61
2022/09/23 01:48:01;;;;;;;8.97;4.83;;;;;;;3.83;100.00;96587.44;5031493;28;105468;-61
2022/09/23 01:53:24;;;;;;;4.83;4.43;;;;;;;4.01;100.00;96592.06;5028063;28;104885;-61
2022/09/23 01:55:57;;;;;;;4.80;4.30;;;;;;;3.95;100.00;96590.25;5027829;28;105242;-61
2022/09/23 01:58:29;;;;;;;5.00;3.90;;;;;;;4.03;100.00;96587.41;5028468;28;101942;-61
2022/09/23 02:00:59;;;;;;;4.67;4.20;;;;;;;4.05;100.00;96585.41;5028265;28;104846;-61
2022/09/23 02:03:33;;;;;;;5.17;4.47;;;;;;;4.12;100.00;96586.19;5027850;28;105441;-61
2022/09/23 02:06:05;;;;;;;4.33;3.87;;;;;;;4.09;100.00;96586.63;5028249;28;102321;-61
2022/09/23 02:08:37;;;;;;;4.47;4.07;;;;;;;4.11;100.00;96589.84;5031043;27;105096;-61
2022/09/23 02:11:08;;;;;;;4.30;4.00;;;;;;;4.10;100.00;96582.97;5036169;28;102878;-61
2022/09/23 02:13:40;;;;;;;3.90;3.57;;;;;;;3.98;100.00;96577.50;5032996;28;102328;-61
2022/09/23 02:16:14;;;;;;;3.93;3.63;;;;;;;3.71;100.00;96578.53;5031324;28;105185;-61
2022/09/23 02:18:50;;;;;;;3.80;3.50;;;;;;;3.80;100.00;96581.78;5033339;28;102038;-61
2022/09/23 02:21:19;;;;;;;4.07;3.73;;;;;;;3.71;100.00;96588.28;5031482;28;103592;-61
2022/09/23 02:23:51;;;;;;;3.87;3.47;;;;;;;3.45;100.00;96591.69;5032485;28;102501;-61
2022/09/23 02:26:23;;;;;;;4.20;3.80;;;;;;;3.54;100.00;96587.03;5031679;28;101717;-61
2022/09/23 02:29:00;;;;;;;4.70;4.20;;;;;;;3.68;100.00;96583.41;5031225;28;105008;-61
2022/09/23 02:31:37;;;;;;;4.30;3.90;;;;;;;3.67;100.00;96590.47;5030843;28;105080;-61
2022/09/23 02:34:19;;;;;;;5.70;5.20;;;;;;;3.66;100.00;96583.59;5034949;28;101886;-61
2022/09/23 02:36:56;;;;;;;5.53;5.03;;;;;;;3.72;100.00;96582.00;5032338;28;102609;-61
2022/09/23 02:39:27;;;;;;;5.60;5.10;;;;;;;3.67;100.00;96579.16;5031443;28;101842;-61
2022/09/23 02:42:02;;;;;;;6.27;4.90;;;;;;;3.68;100.00;96583.41;5031590;28;102933;-61
2022/09/23 02:44:31;;;;;;;6.40;5.60;;;;;;;3.71;100.00;96580.38;5030701;28;106024;-61
2022/09/23 02:47:00;;;;;;;6.00;5.40;;;;;;;3.75;100.00;96578.94;5031053;28;101878;-61
2022/09/23 02:49:30;;;;;;;5.87;5.37;;;;;;;3.78;100.00;96573.28;5031003;28;105245;-61
2022/09/23 02:52:03;;;;;;;6.30;5.70;;;;;;;3.77;100.00;96576.94;5030425;28;103989;-61
2022/09/23 02:54:31;;;;;;;7.53;6.23;;;;;;;3.85;100.00;96581.97;5030964;28;102553;-61
2022/09/23 02:57:01;;;;;;;6.70;6.03;;;;;;;3.80;100.00;96581.78;5035385;28;102081;-61
2022/09/23 02:59:30;;;;;;;6.67;6.07;;;;;;;3.78;100.00;96579.34;5031011;28;101824;-61
2022/09/23 03:02:13;;;;;;;6.93;6.27;;;;;;;3.69;100.00;96575.31;5030916;28;105146;-61
2022/09/23 03:04:52;;;;;;;10.50;5.73;;;;;;;3.59;100.00;96568.84;5030361;28;105569;-61
2022/09/23 03:07:25;;;;;;;6.23;5.63;;;;;;;3.59;100.00;96580.16;5031024;28;101889;-61
2022/09/23 03:09:57;;;;;;;6.30;5.70;;;;;;;3.57;100.00;96570.88;5030803;28;103535;-61
2022/09/23 03:12:34;;;;;;;7.27;5.77;;;;;;;3.58;100.00;96573.28;5030238;28;105446;-61
2022/09/23 03:15:17;;;;;;;7.40;6.60;;;;;;;3.61;100.00;96566.81;5031034;28;101946;-61
2022/09/23 03:17:50;;;;;;;7.10;6.40;;;;;;;3.65;100.00;96574.09;5032340;28;102620;-61
2022/09/23 03:20:27;;;;;;;6.33;5.73;;;;;;;3.66;100.00;96569.66;5032457;27;106354;-61
2022/09/23 03:22:59;;;;;;;7.43;6.80;;;;;;;3.81;100.00;96572.88;5030763;28;104806;-61
2022/09/23 03:25:32;;;;;;;6.27;5.67;;;;;;;3.69;100.00;96577.13;5030100;28;104170;-61
2022/09/23 03:28:01;;;;;;;6.17;5.63;;;;;;;3.82;100.00;96570.03;5030598;28;101830;-61
2022/09/23 03:30:30;;;;;;;6.83;6.23;;;;;;;3.74;100.00;96572.06;5030518;28;105231;-61
2022/09/23 03:33:00;;;;;;;6.30;5.70;;;;;;;3.85;100.00;96567.00;5029711;28;104179;-61
2022/09/23 03:36:48;;;;;;;6.50;5.90;;;;;;;3.75;100.00;96568.41;5030420;28;101775;-61
2022/09/23 03:38:24;;;;;;;6.50;5.90;;;;;;;3.70;100.00;96566.41;5029595;28;105186;-61
2022/09/23 03:40:56;;;;;;;6.33;5.73;;;;;;;3.74;100.00;96567.63;5033067;28;105208;-61
2022/09/23 03:43:23;;;;;;;6.00;5.50;;;;;;;3.73;100.00;96568.66;5032002;28;102583;-61
2022/09/23 03:45:56;;;;;;;5.97;5.37;;;;;;;3.80;100.00;96566.00;5031011;28;101999;-61
2022/09/23 03:48:23;;;;;;;6.30;5.70;;;;;;;3.72;100.00;96569.63;5031474;28;101884;-61
2022/09/23 03:50:52;;;;;;;5.53;5.03;;;;;;;3.66;100.00;96562.56;5030064;28;104024;-61
2022/09/23 03:53:20;;;;;;;7.50;6.40;;;;;;;3.71;100.00;96561.97;5029476;28;105336;-61
2022/09/23 03:55:48;;;;;;;5.30;4.80;;;;;;;3.72;100.00;96563.59;5030028;28;101890;-61
2022/09/23 03:58:16;;;;;;;4.93;4.43;;;;;;;3.65;100.00;96557.53;5030197;28;105398;-61
2022/09/23 04:00:44;;;;;;;5.70;5.20;;;;;;;3.42;100.00;96567.63;5029635;28;105692;-61
2022/09/23 04:03:10;;;;;;;6.00;5.50;;;;;;;3.32;100.00;96560.13;5033492;28;101926;-61
2022/09/23 04:05:38;;;;;;;5.83;5.33;;;;;;;3.43;100.00;96566.59;5029379;28;105767;-61
2022/09/23 04:08:06;;;;;;;6.40;5.80;;;;;;;3.46;100.00;96566.22;5030116;28;101759;-61
2022/09/23 04:10:33;;;;;;;6.13;5.63;;;;;;;3.48;100.00;96556.28;5031092;28;102353;-61
2022/09/23 04:13:00;;;;;;;6.50;5.83;;;;;;;3.50;100.00;96556.91;5029296;28;105420;-61
2022/09/23 04:15:28;;;;;;;6.50;5.90;;;;;;;3.49;100.00;96555.31;5031207;28;101803;-61
2022/09/23 04:17:56;;;;;;;7.07;6.47;;;;;;;3.52;100.00;96557.50;5029738;28;105101;-61
2022/09/23 04:20:24;;;;;;;6.20;5.60;;;;;;;3.36;100.00;96556.09;5029187;28;105283;-61
2022/09/23 04:22:51;;;;;;;6.07;5.57;;;;;;;3.33;100.00;96550.44;5029797;28;101907;-61
2022/09/23 04:25:20;;;;;;;6.33;5.73;;;;;;;3.45;100.00;96554.09;5033761;28;102630;-61
2022/09/23 04:27:48;;;;;;;5.83;5.23;;;;;;;3.49;100.00;96550.06;5029699;28;101961;-61
2022/09/23 04:30:15;;;;;;;6.33;5.73;;;;;;;3.48;100.00;96546.59;5029482;27;105137;-61
2022/09/23 04:32:42;;;;;;;6.43;5.80;;;;;;;3.52;100.00;96549.63;5029426;28;103144;-61
2022/09/23 04:35:09;;;;;;;11.63;6.60;;;;;;;3.51;100.00;96546.22;5029457;28;101929;-61
2022/09/23 04:37:40;;;;;;;6.60;6.00;;;;;;;3.49;100.00;96550.84;5029711;28;105443;-61
2022/09/23 04:40:09;;;;;;;6.73;6.07;;;;;;;3.50;100.00;96556.91;5029248;28;103886;-61
2022/09/23 04:42:38;;;;;;;6.20;5.70;;;;;;;3.54;100.00;96553.66;5029930;28;101919;-60
2022/09/23 04:45:05;;;;;;;8.10;6.60;;;;;;;3.52;100.00;96549.63;5029871;28;104837;-61
2022/09/23 04:51:26;;;;;;;7.40;6.63;;;;;;;3.59;100.00;96558.31;5027865;28;101749;-61
2022/09/23 04:53:55;;;;;;;6.93;6.33;;;;;;;3.50;100.00;96562.19;5011859;28;106350;-61
2022/09/23 04:56:44;;;;;;;9.40;6.80;;;;;;;3.48;100.00;96556.28;5029798;28;101922;-60
2022/09/23 04:59:13;;;;;;;6.77;6.17;;;;;;;3.42;100.00;96557.94;5029796;28;104800;-61
2022/09/23 05:01:41;;;;;;;6.93;6.33;;;;;;;3.45;100.00;96562.75;5029117;28;104343;-61
2022/09/23 05:04:12;;;;;;;6.30;5.80;;;;;;;3.54;100.00;96563.38;5029585;28;101875;-61
2022/09/23 05:10:26;;;;;;;7.50;6.80;;;;;;;3.64;100.00;96566.41;5027114;28;102093;-61
2022/09/23 05:12:57;;;;;;;7.10;6.50;;;;;;;3.66;100.00;96567.03;5032721;28;101954;-61
2022/09/23 05:15:26;;;;;;;8.40;7.70;;;;;;;3.67;100.00;96564.19;5028730;28;105622;-61
2022/09/23 05:17:57;;;;;;;6.97;6.37;;;;;;;3.69;100.00;96564.81;5029269;28;102058;-61
2022/09/23 05:20:29;;;;;;;7.43;6.57;;;;;;;3.70;100.00;96571.66;5029021;28;103687;-61
2022/09/23 05:22:57;;;;;;;8.50;7.60;;;;;;;3.71;100.00;96572.50;5028441;28;106045;-61
2022/09/23 05:25:24;;;;;;;7.60;6.83;;;;;;;3.72;100.00;96571.47;5029157;28;101884;-61
2022/09/23 05:27:51;;;;;;;7.30;6.70;;;;;;;3.69;100.00;96564.81;5029209;28;105906;-61
2022/09/23 05:30:18;;;;;;;8.00;7.03;;;;;;;3.85;100.00;96571.47;5028279;28;103855;-61
2022/09/23 05:32:47;;;;;;;7.07;6.47;;;;;;;3.88;100.00;96568.44;5030379;28;102045;-61
2022/09/23 05:35:13;;;;;;;8.00;6.70;;;;;;;3.94;100.00;96563.13;5033121;28;102489;-61
2022/09/23 05:38:33;;;;;;;7.97;7.23;;;;;;;3.89;100.00;96570.03;5028910;28;101666;-61
2022/09/23 05:41:02;;;;;;;8.00;7.20;;;;;;;3.96;100.00;96565.56;5028575;28;105375;-61
2022/09/23 05:43:29;;;;;;;7.47;6.77;;;;;;;3.95;100.00;96567.41;5030727;27;105825;-61
2022/09/23 05:46:22;;;;;;;7.40;6.70;;;;;;;4.08;100.00;96570.00;5032737;28;101921;-61
2022/09/23 05:48:51;;;;;;;7.47;6.77;;;;;;;4.10;100.00;96573.22;5031984;28;105211;-61
2022/09/23 05:51:20;;;;;;;7.00;6.30;;;;;;;4.14;100.00;96573.66;5031138;28;104991;-61
2022/09/23 05:53:49;;;;;;;6.90;6.20;;;;;;;4.35;100.00;96568.09;5031545;28;101928;-61
2022/09/23 05:56:18;;;;;;;7.67;6.97;;;;;;;4.46;100.00;96570.91;5034728;28;105660;-61
2022/09/23 05:58:49;;;;;;;7.43;6.73;;;;;;;4.47;100.00;96569.09;5033220;27;101704;-61
2022/09/23 06:01:19;;;;;;;8.00;7.20;;;;;;;4.61;100.00;96565.38;5033159;28;102593;-61
2022/09/23 06:03:47;;;;;;;8.53;7.30;;;;;;;4.74;100.00;96566.13;5032991;27;102553;-61
2022/09/23 06:06:21;;;;;;;8.10;7.30;;;;;;;4.91;100.00;96569.91;5031361;28;101968;-61
2022/09/23 06:08:49;;;;;;;8.53;7.73;;;;;;;5.03;100.00;96567.41;5031700;28;104850;-61
2022/09/23 06:11:15;;;;;;;9.07;8.27;;;;;;;5.21;100.00;96562.25;5031159;28;105233;-61
2022/09/23 06:13:42;;;;;;;8.93;8.13;;;;;;;5.40;100.00;96561.31;5031870;28;101847;-61
2022/09/23 06:16:11;;;;;;;8.53;7.63;;;;;;;5.40;100.00;96558.69;5031805;28;104336;-61
2022/09/23 06:18:38;;;;;;;10.07;8.90;;;;;;;5.50;100.00;96564.25;5034424;28;105023;-61
2022/09/23 06:21:07;;;;;;;9.13;8.07;;;;;;;5.53;100.00;96561.19;5032340;28;102590;-61
2022/09/23 06:23:37;;;;;;;8.53;7.73;;;;;;;5.69;100.00;96558.03;5032608;28;101930;-61
2022/09/23 06:26:06;;;;;;;10.17;7.70;;;;;;;5.83;100.00;96564.84;5031689;28;101732;-61
2022/09/23 06:28:36;;;;;;;8.27;7.57;;;;;;;5.90;100.00;96569.03;5033128;28;102323;-61
2022/09/23 06:31:07;;;;;;;11.43;8.17;;;;;;;6.08;100.00;96570.91;5030822;28;104085;-61
2022/09/23 06:33:35;;;;;;;9.57;8.53;;;;;;;6.29;100.00;96565.22;5031292;28;101930;-60
2022/09/23 06:36:05;;;;;;;10.83;8.40;;;;;;;6.39;100.00;96566.31;5031268;28;105150;-60
2022/09/23 06:38:34;;;;;;;11.00;8.20;;;;;;;6.55;100.00;96564.94;5030694;28;103960;-61
2022/09/23 06:41:03;;;;;;;13.37;9.47;;;;;;;6.53;100.00;96562.50;5024927;28;102614;-62
2022/09/23 06:43:31;;;;;;;10.87;9.23;;;;;;;6.69;100.00;96563.72;5024723;28;103078;-62
2022/09/23 06:46:12;;;;;;;11.50;9.30;;;;;;;6.98;100.00;96565.63;5025857;28;101982;-61
2022/09/23 06:48:40;;;;;;;11.60;10.47;;;;;;;7.18;100.00;96559.03;5012695;28;105474;-60
2022/09/23 06:51:07;;;;;;;11.93;10.83;;;;;;;7.35;100.00;96560.00;5021589;28;105086;-61
2022/09/23 06:53:35;;;;;;;12.10;10.97;;;;;;;7.57;100.00;96569.03;5022383;27;101940;-61
2022/09/23 06:56:06;;;;;;;11.83;10.73;;;;;;;7.73;100.00;96562.25;5027591;28;105175;-61
2022/09/23 06:58:36;;;;;;;12.10;11.00;;;;;;;7.82;100.00;96568.84;5029970;28;103690;-61
2022/09/23 07:01:05;;;;;;;17.47;12.00;;;;;;;8.02;100.00;96562.16;5029935;28;101859;-61
2022/09/23 07:03:34;;;;;;;12.43;11.27;;;;;;;8.24;100.00;96559.81;5032912;28;103874;-61
2022/09/23 07:06:32;;;;;;;12.80;11.50;;;;;;;8.26;100.00;96568.31;5026837;28;101884;-61
2022/09/23 07:09:02;;;;;;;13.33;12.10;;;;;;;8.44;100.00;96566.34;5027853;28;105481;-61
2022/09/23 07:11:30;;;;;;;13.00;11.80;;;;;;;8.58;100.00;96577.50;5022169;28;104970;-61
2022/09/23 07:13:57;;;;;;;13.93;12.53;;;;;;;8.70;100.00;96572.97;5010136;28;102046;-61
2022/09/23 07:17:05;;;;;;;13.80;12.50;;;;;;;8.82;100.00;96568.44;5016141;28;105053;-61
2022/09/23 07:22:58;;;;;;;12.00;10.80;;;;;;;9.08;100.00;96573.22;5031582;27;101748;-61
2022/09/23 07:25:28;;;;;;;12.50;11.30;;;;;;;9.21;100.00;96570.28;5024559;28;105171;-61
2022/09/23 07:27:57;;;;;;;12.03;10.93;;;;;;;9.25;100.00;96560.81;5032677;28;105457;-61
2022/09/23 07:30:25;;;;;;;11.40;10.40;;;;;;;9.43;100.00;96566.72;5029473;28;104779;-61
2022/09/23 07:32:53;;;;;;;11.57;10.53;;;;;;;9.54;100.00;96563.19;5030446;28;102552;-61
2022/09/23 07:35:20;;;;;;;14.33;10.63;;;;;;;9.68;100.00;96566.34;5024557;27;103125;-61
2022/09/23 07:37:50;;;;;;;12.00;10.83;;;;;;;9.82;100.00;96557.81;5009799;28;105197;-62
2022/09/23 07:40:18;;;;;;;10.80;9.80;;;;;;;9.84;100.00;96563.72;5016458;28;103259;-61
2022/09/23 07:42:44;;;;;;;12.30;10.70;;;;;;;10.05;100.00;96565.69;5030658;28;101849;-61
2022/09/23 07:45:15;;;;;;;12.17;11.00;;;;;;;10.10;100.00;96555.13;5012951;28;103543;-61
2022/09/23 07:47:55;;;;;;;11.90;10.80;;;;;;;10.25;100.00;96565.19;5008854;28;104434;-61
2022/09/23 07:51:04;;;;;;;10.93;9.93;;;;;;;10.47;100.00;96563.38;5014055;28;101923;-61
2022/09/23 07:53:32;;;;;;;11.83;10.73;;;;;;;10.64;100.00;96566.78;5009366;28;105189;-61
2022/09/23 07:56:49;;;;;;;11.63;10.60;;;;;;;10.82;100.00;96571.81;5028595;28;102108;-61
2022/09/23 07:59:18;;;;;;;11.60;10.60;;;;;;;10.78;100.00;96566.19;5029019;28;104875;-61
2022/09/23 08:01:49;;;;;;;11.40;10.23;;;;;;;11.08;100.00;96563.09;5028711;28;106148;-61
2022/09/23 08:04:18;;;;;;;10.60;9.57;;;;;;;11.37;100.00;96567.13;5028895;28;102232;-62
2022/09/23 08:06:48;;;;;;;10.40;9.43;;;;;;;11.38;100.00;96566.06;5030248;27;103947;-61
2022/09/23 08:09:16;;;;;;;10.23;9.27;;;;;;;11.35;100.00;96563.91;5030867;28;102680;-62
2022/09/23 08:11:43;;;;;;;9.20;8.40;;;;;;;11.36;100.00;96557.53;5033820;28;102049;-62
2022/09/23 08:14:12;;;;;;;9.13;8.33;;;;;;;11.47;100.00;96562.72;5030131;27;102956;-62
2022/09/23 08:16:51;;;;;;;8.53;7.83;;;;;;;11.49;100.00;96551.78;5031439;27;101834;-62
2022/09/23 08:19:19;;;;;;;8.93;8.13;;;;;;;11.62;100.00;96554.09;5026728;28;103022;-61
2022/09/23 08:21:46;;;;;;;8.73;7.90;;;;;;;11.27;100.00;96556.34;5010800;28;102557;-61
2022/09/23 08:24:16;;;;;;;8.60;7.80;;;;;;;11.24;100.00;96554.22;5010085;28;102003;-62
2022/09/23 08:27:35;;;;;;;8.50;7.70;;;;;;;11.53;100.00;96558.22;5010020;28;105377;-61
2022/09/23 08:30:02;;;;;;;7.83;7.13;;;;;;;11.81;100.00;96560.66;5009401;28;105087;-61
2022/09/23 08:32:31;;;;;;;8.40;7.60;;;;;;;11.75;100.00;96551.00;5013767;28;103324;-61
2022/09/23 08:34:59;;;;;;;7.40;6.70;;;;;;;11.42;100.00;96557.34;5023107;28;102275;-61
2022/09/23 08:37:43;;;;;;;7.37;6.67;;;;;;;11.79;100.00;96554.78;5009897;28;101887;-63
2022/09/23 08:40:11;;;;;;;7.40;6.70;;;;;;;12.32;100.00;96549.31;5014703;28;105489;-60
2022/09/23 08:42:41;;;;;;;8.43;7.10;;;;;;;12.77;100.00;96549.56;5029200;28;106218;-61
2022/09/23 08:45:16;;;;;;;7.90;6.83;;;;;;;13.00;100.00;96547.31;5017621;28;102034;-62
2022/09/23 08:48:23;;;;;;;7.83;7.13;;;;;;;13.36;100.00;96548.22;5011703;28;102321;-62
2022/09/23 08:51:05;;;;;;;7.33;6.63;;;;;;;13.56;100.00;96546.38;5009012;28;105857;-62
2022/09/23 08:53:34;;;;;;;6.87;6.37;;;;;;;13.71;100.00;96540.25;5017975;28;101685;-62
2022/09/23 08:56:39;;;;;;;6.67;6.07;;;;;;;13.98;100.00;96540.81;5012816;28;104848;-62
2022/09/23 08:59:13;;;;;;;7.07;6.40;;;;;;;14.21;100.00;96545.63;5012228;28;105143;-62
2022/09/23 09:01:44;;;;;;;6.57;6.00;;;;;;;14.15;100.00;96544.00;5009447;28;105596;-62
2022/09/23 09:04:17;;;;;;;7.37;6.63;;;;;;;13.70;100.00;96536.00;5008863;28;105338;-63
2022/09/23 09:07:15;;;;;;;6.27;5.67;;;;;;;13.97;100.00;96542.69;5009264;28;101889;-63
2022/09/23 09:09:47;;;;;;;7.37;5.97;;;;;;;13.55;100.00;96536.78;5009121;28;104983;-62
2022/09/23 09:12:18;;;;;;;6.57;5.97;;;;;;;13.80;100.00;96539.47;5008548;28;103813;-63
2022/09/23 09:14:57;;;;;;;6.50;5.87;;;;;;;14.16;100.00;96533.03;5009208;28;101796;-62
2022/09/23 09:17:39;;;;;;;6.20;5.70;;;;;;;14.23;100.00;96536.28;5013738;28;104862;-62
2022/09/23 09:20:22;;;;;;;7.73;6.10;;;;;;;14.48;100.00;96524.72;5028609;28;105106;-61
2022/09/23 09:23:02;;;;;;;6.20;5.70;;;;;;;14.79;100.00;96526.25;5015616;28;102030;-62
2022/09/23 09:26:14;;;;;;;7.50;5.97;;;;;;;14.93;100.00;96521.94;5028757;28;105573;-62
2022/09/23 09:28:46;;;;;;;6.17;5.67;;;;;;;15.24;100.00;96520.69;5028899;28;102372;-62
2022/09/23 09:31:24;;;;;;;6.57;5.40;;;;;;;15.25;100.00;96514.25;5029151;28;103675;-62
2022/09/23 09:33:56;;;;;;;6.23;5.40;;;;;;;15.76;100.00;96510.22;5030300;28;102585;-63
2022/09/23 09:36:40;;;;;;;7.83;5.07;;;;;;;16.03;100.00;96502.50;5028995;28;101966;-62
2022/09/23 09:39:12;;;;;;;5.77;5.13;;;;;;;15.68;100.00;96502.75;5029278;28;105139;-60
2022/09/23 09:41:45;;;;;;;5.40;4.90;;;;;;;15.69;100.00;96509.75;5028331;28;105776;-61
2022/09/23 09:44:24;;;;;;;4.67;4.37;;;;;;;16.10;100.00;96505.63;5029012;28;101993;-61
2022/09/23 09:47:00;;;;;;;5.50;5.00;;;;;;;15.87;100.00;96504.47;5033041;28;102457;-61
2022/09/23 09:49:49;;;;;;;5.50;5.00;;;;;;;16.17;100.00;96495.38;5030309;27;102172;-62
2022/09/23 09:52:24;;;;;;;5.37;4.87;;;;;;;16.29;100.00;96490.44;5030310;28;102929;-62
2022/09/23 09:54:55;;;;;;;6.87;4.80;;;;;;;16.56;100.00;96488.06;5028061;28;105355;-61
2022/09/23 09:57:44;;;;;;;5.73;5.20;;;;;;;16.42;100.00;96484.44;5028716;28;101928;-61
2022/09/23 10:00:34;;;;;;;5.03;4.60;;;;;;;16.93;100.00;96482.75;5028983;28;104926;-61
2022/09/23 10:03:03;;;;;;;7.07;4.73;;;;;;;17.20;100.00;96477.56;5028207;28;103839;-61
2022/09/23 10:05:33;;;;;;;5.03;4.53;;;;;;;17.05;100.00;96475.88;5028687;28;102079;-61
2022/09/23 10:08:22;;;;;;;5.17;4.43;;;;;;;17.53;100.00;96472.03;5028502;28;106433;-60
2022/09/23 10:10:59;;;;;;;4.93;4.00;;;;;;;17.76;100.00;96473.81;5031226;27;102176;-61
2022/09/23 10:13:29;;;;;;;4.37;3.97;;;;;;;17.89;100.00;96474.97;5030013;27;102456;-61
2022/09/23 10:16:25;;;;;;;4.60;4.20;;;;;;;17.83;100.00;96468.06;5027953;28;104425;-61
2022/09/23 10:19:20;;;;;;;3.90;3.50;;;;;;;17.71;100.00;96467.72;5028512;27;101927;-61
2022/09/23 10:21:55;;;;;;;3.93;3.63;;;;;;;17.78;100.00;96463.56;5028452;28;102525;-61
2022/09/23 10:24:28;;;;;;;3.70;3.40;;;;;;;18.23;100.00;96460.09;5009493;28;102830;-62
2022/09/23 10:27:12;;;;;;;4.53;3.33;;;;;;;18.69;100.00;96473.53;5024444;28;101989;-61
2022/09/23 10:29:48;;;;;;;4.20;3.70;;;;;;;18.08;100.00;96462.25;5029606;27;105301;-62
2022/09/23 10:32:37;;;;;;;3.63;3.37;;;;;;;18.10;100.00;96460.84;5026557;28;105588;-61
2022/09/23 10:35:15;;;;;;;4.57;3.70;;;;;;;18.37;100.00;96458.25;4973826;28;105377;-62
2022/09/23 10:37:53;;;;;;;3.87;3.10;;;;;;;18.73;100.00;96459.16;4973494;28;105764;-62
2022/09/23 10:46:55;;;;;;;3.60;3.30;;;;;;;18.34;100.00;96449.97;4973012;28;105856;-61
2022/09/23 10:50:03;;;;;;;4.00;3.47;;;;;;;18.70;100.00;96443.59;4973840;28;102216;-61
2022/09/23 10:52:48;;;;;;;4.13;3.50;;;;;;;17.51;100.00;96433.06;4972930;28;105592;-61
2022/09/23 10:55:31;;;;;;;4.53;3.40;;;;;;;17.88;100.00;96433.00;4973010;28;105347;-61
2022/09/23 10:58:22;;;;;;;3.83;3.53;;;;;;;17.80;100.00;96436.34;4977097;28;101955;-61
2022/09/23 11:01:05;;;;;;;4.27;3.50;;;;;;;18.32;100.00;96436.00;4973241;28;104093;-61
2022/09/23 11:04:04;;;;;;;3.93;3.40;;;;;;;18.02;100.00;96431.94;4973641;28;101865;-61
2022/09/23 11:10:49;;;;;;;3.20;2.90;;;;;;;17.97;100.00;96417.75;4986475;28;103488;-61
2022/09/23 11:13:30;;;;;;;3.03;2.73;;;;;;;18.98;100.00;96420.94;5006753;28;102037;-61
2022/09/23 11:16:41;;;;;;;3.17;2.87;;;;;;;18.69;100.00;96415.06;5012473;28;102310;-61
2022/09/23 11:19:22;;;;;;;2.70;2.50;;;;;;;19.53;100.00;96413.50;5011562;28;102911;-61
2022/09/23 11:22:12;;;;;;;3.10;2.57;;;;;;;19.92;100.00;96406.31;5010986;28;102066;-61
2022/09/23 11:24:57;;;;;;;3.03;2.40;;;;;;;19.91;100.00;96407.44;5015060;28;102433;-61
2022/09/23 11:31:21;;;;;;;2.87;2.67;;;;;;;19.11;100.00;96397.72;5013159;28;101795;-61
2022/09/23 11:34:05;;;;;;;2.93;2.63;;;;;;;19.38;100.00;96397.66;5010121;28;103982;-60
2022/09/23 11:36:36;;;;;;;2.70;2.50;;;;;;;19.42;100.00;96396.78;5010600;28;101868;-61
2022/09/23 11:39:12;;;;;;;2.33;2.23;;;;;;;19.79;100.00;96388.28;5011562;28;105512;-61
2022/09/23 11:41:42;;;;;;;2.90;2.47;;;;;;;19.75;100.00;96389.22;5009538;28;105068;-61
2022/09/23 11:44:15;;;;;;;3.10;2.17;;;;;;;19.62;100.00;96385.47;5019867;28;103154;-61
2022/09/23 11:46:58;;;;;;;3.67;2.23;;;;;;;20.42;100.00;96379.91;5030997;28;105086;-61
2022/09/23 11:49:52;;;;;;;3.67;2.30;;;;;;;20.29;94.85;96378.09;5023030;28;105116;-61
2022/09/23 11:52:25;;;;;;;2.80;2.50;;;;;;;20.17;96.97;96375.19;5010045;28;103549;-61
2022/09/23 11:54:56;;;;;;;3.33;2.30;;;;;;;20.30;97.34;96372.41;5009703;28;105547;-61
2022/09/23 11:57:59;;;;;;;2.17;1.97;;;;;;;20.90;89.63;96372.59;5010509;28;101647;-61
2022/09/23 12:00:31;;;;;;;2.27;2.17;;;;;;;20.37;86.27;96363.81;5028486;28;105183;-61
2022/09/23 12:03:12;;;;;;;2.00;1.87;;;;;;;20.86;99.93;96367.00;5029864;28;103857;-61
2022/09/23 12:05:46;;;;;;;4.07;2.20;;;;;;;20.82;81.90;96362.53;5030955;28;103719;-61
2022/09/23 12:08:22;;;;;;;3.00;2.60;;;;;;;20.50;87.89;96362.94;5031609;28;102839;-61
2022/09/23 12:10:58;;;;;;;3.93;2.20;;;;;;;20.53;90.96;96367.69;5026396;28;103977;-61
2022/09/23 12:13:34;;;;;;;2.67;2.20;;;;;;;20.88;88.82;96359.34;5014897;28;101749;-61
2022/09/23 12:16:51;;;;;;;3.57;2.30;;;;;;;19.86;86.72;96360.88;5009529;28;104121;-61
2022/09/23 12:19:32;;;;;;;3.03;2.77;;;;;;;19.45;91.12;96352.22;4942205;28;101795;-61
2022/09/23 12:22:22;;;;;;;2.70;2.00;;;;;;;20.40;91.42;96350.50;4998589;28;104944;-61
2022/09/23 12:24:59;;;;;;;3.00;2.70;;;;;;;20.30;81.97;96350.78;5028592;28;105416;-61